< < Back
Terminal Aerodrome Forecast


Current Version              Previous Versions:   1  2  3  4  5  6  7  8  9  

Terminal Aerodrome Forecast

120
FTUS42 KGSP 202335
TAFHKY
TAF
KHKY 202335Z 2100/2124 22011G20KT P6SM SCT100
     FM210200 25005KT P6SM SCT100 SCT250
     FM210700 27005KT P6SM SCT200
     FM211500 25009KT P6SM SCT200
     FM212000 24011KT P6SM FEW050 SCT200=



Latest METAR

669
SAUS70 KWBC 210500
MTRHKY
METAR KHKY 210453Z AUTO 30009KT 10SM CLR 15/08 A2976 RMK AO2 SLP058
T01500083 402330144


USA.gov is the U.S. government's official web portal to all federal, state and local government web resources and services.